sensor_id;sensor_type;location;lat;lon;timestamp;P1;durP1;ratioP1;P2;durP2;ratioP2
1591;SDS011;789;51.612;7.510;2022-09-12T00:01:06;26.57;;;19.83;;
1591;SDS011;789;51.612;7.510;2022-09-12T00:03:36;24.87;;;20.00;;
1591;SDS011;789;51.612;7.510;2022-09-12T00:06:07;23.73;;;21.23;;
1591;SDS011;789;51.612;7.510;2022-09-12T00:08:35;22.30;;;19.90;;
1591;SDS011;789;51.612;7.510;2022-09-12T00:11:06;22.13;;;19.30;;
1591;SDS011;789;51.612;7.510;2022-09-12T00:13:34;23.20;;;20.90;;
1591;SDS011;789;51.612;7.510;2022-09-12T00:16:02;22.73;;;20.10;;
1591;SDS011;789;51.612;7.510;2022-09-12T00:18:29;25.30;;;20.40;;
1591;SDS011;789;51.612;7.510;2022-09-12T00:21:00;25.33;;;20.33;;
1591;SDS011;789;51.612;7.510;2022-09-12T00:23:29;24.03;;;20.33;;
1591;SDS011;789;51.612;7.510;2022-09-12T00:25:55;22.00;;;18.97;;
1591;SDS011;789;51.612;7.510;2022-09-12T00:28:22;20.67;;;18.67;;
1591;SDS011;789;51.612;7.510;2022-09-12T00:30:49;23.80;;;19.57;;
1591;SDS011;789;51.612;7.510;2022-09-12T00:33:16;25.17;;;21.57;;
1591;SDS011;789;51.612;7.510;2022-09-12T00:35:44;25.73;;;20.20;;
1591;SDS011;789;51.612;7.510;2022-09-12T00:38:13;26.40;;;21.20;;
1591;SDS011;789;51.612;7.510;2022-09-12T00:40:41;25.13;;;20.20;;
1591;SDS011;789;51.612;7.510;2022-09-12T00:43:10;24.63;;;21.90;;
1591;SDS011;789;51.612;7.510;2022-09-12T00:45:39;27.27;;;22.20;;
1591;SDS011;789;51.612;7.510;2022-09-12T00:48:07;30.83;;;22.30;;
1591;SDS011;789;51.612;7.510;2022-09-12T00:50:45;26.33;;;22.00;;
1591;SDS011;789;51.612;7.510;2022-09-12T00:53:13;23.73;;;20.33;;
1591;SDS011;789;51.612;7.510;2022-09-12T00:55:40;23.07;;;19.60;;
1591;SDS011;789;51.612;7.510;2022-09-12T00:58:09;23.57;;;20.93;;
1591;SDS011;789;51.612;7.510;2022-09-12T01:00:40;25.53;;;21.57;;
1591;SDS011;789;51.612;7.510;2022-09-12T01:03:07;27.80;;;21.40;;
1591;SDS011;789;51.612;7.510;2022-09-12T01:05:39;24.00;;;19.80;;
1591;SDS011;789;51.612;7.510;2022-09-12T01:08:08;31.57;;;20.60;;
1591;SDS011;789;51.612;7.510;2022-09-12T01:10:37;25.53;;;20.43;;
1591;SDS011;789;51.612;7.510;2022-09-12T01:13:06;23.00;;;20.50;;
1591;SDS011;789;51.612;7.510;2022-09-12T01:15:35;22.77;;;18.80;;
1591;SDS011;789;51.612;7.510;2022-09-12T01:18:06;22.60;;;19.70;;
1591;SDS011;789;51.612;7.510;2022-09-12T01:20:46;24.97;;;19.10;;
1591;SDS011;789;51.612;7.510;2022-09-12T01:23:42;24.50;;;18.67;;
1591;SDS011;789;51.612;7.510;2022-09-12T01:26:46;22.60;;;18.57;;
1591;SDS011;789;51.612;7.510;2022-09-12T01:29:45;25.63;;;20.00;;
1591;SDS011;789;51.612;7.510;2022-09-12T01:32:44;25.87;;;19.20;;
1591;SDS011;789;51.612;7.510;2022-09-12T01:35:22;21.70;;;18.50;;
1591;SDS011;789;51.612;7.510;2022-09-12T01:37:59;23.17;;;18.97;;
1591;SDS011;789;51.612;7.510;2022-09-12T01:40:37;22.43;;;17.80;;
1591;SDS011;789;51.612;7.510;2022-09-12T01:43:12;21.30;;;17.50;;
1591;SDS011;789;51.612;7.510;2022-09-12T01:45:46;22.27;;;18.90;;
1591;SDS011;789;51.612;7.510;2022-09-12T01:48:23;20.40;;;17.87;;
1591;SDS011;789;51.612;7.510;2022-09-12T01:50:57;18.10;;;16.20;;
1591;SDS011;789;51.612;7.510;2022-09-12T01:53:31;24.20;;;18.40;;
1591;SDS011;789;51.612;7.510;2022-09-12T01:56:02;24.13;;;17.43;;
1591;SDS011;789;51.612;7.510;2022-09-12T01:58:34;21.47;;;17.27;;
1591;SDS011;789;51.612;7.510;2022-09-12T02:01:09;19.27;;;16.77;;
1591;SDS011;789;51.612;7.510;2022-09-12T02:03:41;21.40;;;17.40;;
1591;SDS011;789;51.612;7.510;2022-09-12T02:06:14;22.20;;;16.80;;
1591;SDS011;789;51.612;7.510;2022-09-12T02:08:46;19.40;;;16.10;;
1591;SDS011;789;51.612;7.510;2022-09-12T02:11:16;19.20;;;17.10;;
1591;SDS011;789;51.612;7.510;2022-09-12T02:13:45;21.23;;;15.93;;
1591;SDS011;789;51.612;7.510;2022-09-12T02:16:17;22.13;;;15.87;;
1591;SDS011;789;51.612;7.510;2022-09-12T02:18:49;19.60;;;17.13;;
1591;SDS011;789;51.612;7.510;2022-09-12T02:21:21;21.83;;;17.30;;
1591;SDS011;789;51.612;7.510;2022-09-12T02:23:52;27.20;;;16.87;;
1591;SDS011;789;51.612;7.510;2022-09-12T02:26:23;22.33;;;17.03;;
1591;SDS011;789;51.612;7.510;2022-09-12T02:28:56;19.97;;;16.20;;
1591;SDS011;789;51.612;7.510;2022-09-12T02:31:24;19.63;;;15.80;;
1591;SDS011;789;51.612;7.510;2022-09-12T02:34:01;19.80;;;16.83;;
1591;SDS011;789;51.612;7.510;2022-09-12T02:36:38;20.83;;;17.50;;
1591;SDS011;789;51.612;7.510;2022-09-12T02:39:14;23.03;;;17.83;;
1591;SDS011;789;51.612;7.510;2022-09-12T02:41:44;23.90;;;17.60;;
1591;SDS011;789;51.612;7.510;2022-09-12T02:44:11;22.03;;;17.50;;
1591;SDS011;789;51.612;7.510;2022-09-12T02:46:39;24.30;;;19.37;;
1591;SDS011;789;51.612;7.510;2022-09-12T02:49:10;24.77;;;17.07;;
1591;SDS011;789;51.612;7.510;2022-09-12T02:51:36;20.03;;;17.27;;
1591;SDS011;789;51.612;7.510;2022-09-12T02:54:04;23.90;;;17.87;;
1591;SDS011;789;51.612;7.510;2022-09-12T02:56:31;24.23;;;19.27;;
1591;SDS011;789;51.612;7.510;2022-09-12T02:58:59;23.50;;;20.03;;
1591;SDS011;789;51.612;7.510;2022-09-12T03:01:34;23.00;;;18.40;;
1591;SDS011;789;51.612;7.510;2022-09-12T03:04:16;24.10;;;18.50;;
1591;SDS011;789;51.612;7.510;2022-09-12T03:06:59;24.23;;;19.17;;
1591;SDS011;789;51.612;7.510;2022-09-12T03:09:38;24.03;;;19.10;;
1591;SDS011;789;51.612;7.510;2022-09-12T03:12:14;24.97;;;19.20;;
1591;SDS011;789;51.612;7.510;2022-09-12T03:15:02;24.70;;;19.60;;
1591;SDS011;789;51.612;7.510;2022-09-12T03:17:39;27.63;;;19.47;;
1591;SDS011;789;51.612;7.510;2022-09-12T03:20:13;24.53;;;19.37;;
1591;SDS011;789;51.612;7.510;2022-09-12T03:22:46;27.93;;;20.30;;
1591;SDS011;789;51.612;7.510;2022-09-12T03:25:19;23.00;;;18.13;;
1591;SDS011;789;51.612;7.510;2022-09-12T03:27:53;22.47;;;18.93;;
1591;SDS011;789;51.612;7.510;2022-09-12T03:30:23;24.90;;;18.20;;
1591;SDS011;789;51.612;7.510;2022-09-12T03:32:51;22.40;;;18.50;;
1591;SDS011;789;51.612;7.510;2022-09-12T03:35:23;19.40;;;17.23;;
1591;SDS011;789;51.612;7.510;2022-09-12T03:37:50;21.17;;;18.83;;
1591;SDS011;789;51.612;7.510;2022-09-12T03:40:18;20.47;;;17.80;;
1591;SDS011;789;51.612;7.510;2022-09-12T03:42:45;21.27;;;16.93;;
1591;SDS011;789;51.612;7.510;2022-09-12T03:45:12;21.77;;;17.23;;
1591;SDS011;789;51.612;7.510;2022-09-12T03:47:40;19.17;;;17.10;;
1591;SDS011;789;51.612;7.510;2022-09-12T03:50:07;19.87;;;17.00;;
1591;SDS011;789;51.612;7.510;2022-09-12T03:52:35;18.10;;;16.17;;
1591;SDS011;789;51.612;7.510;2022-09-12T03:55:02;20.77;;;17.30;;
1591;SDS011;789;51.612;7.510;2022-09-12T03:57:32;18.23;;;16.20;;
1591;SDS011;789;51.612;7.510;2022-09-12T03:59:59;19.33;;;15.90;;
1591;SDS011;789;51.612;7.510;2022-09-12T04:02:26;19.30;;;15.40;;
1591;SDS011;789;51.612;7.510;2022-09-12T04:04:53;18.17;;;15.40;;
1591;SDS011;789;51.612;7.510;2022-09-12T04:07:20;23.37;;;16.47;;
1591;SDS011;789;51.612;7.510;2022-09-12T04:09:48;18.90;;;15.83;;
1591;SDS011;789;51.612;7.510;2022-09-12T04:12:15;19.67;;;16.10;;
1591;SDS011;789;51.612;7.510;2022-09-12T04:14:42;19.47;;;15.23;;
1591;SDS011;789;51.612;7.510;2022-09-12T04:17:08;18.30;;;14.93;;
1591;SDS011;789;51.612;7.510;2022-09-12T04:19:35;17.70;;;14.40;;
1591;SDS011;789;51.612;7.510;2022-09-12T04:22:02;17.20;;;14.87;;
1591;SDS011;789;51.612;7.510;2022-09-12T04:24:29;20.00;;;14.73;;
1591;SDS011;789;51.612;7.510;2022-09-12T04:26:58;16.40;;;14.70;;
1591;SDS011;789;51.612;7.510;2022-09-12T04:29:24;21.17;;;15.87;;
1591;SDS011;789;51.612;7.510;2022-09-12T04:31:51;17.57;;;15.53;;
1591;SDS011;789;51.612;7.510;2022-09-12T04:34:18;15.70;;;14.03;;
1591;SDS011;789;51.612;7.510;2022-09-12T04:36:48;16.70;;;13.77;;
1591;SDS011;789;51.612;7.510;2022-09-12T04:39:15;16.83;;;14.00;;
1591;SDS011;789;51.612;7.510;2022-09-12T04:41:42;17.67;;;13.87;;
1591;SDS011;789;51.612;7.510;2022-09-12T04:44:11;15.57;;;13.80;;
1591;SDS011;789;51.612;7.510;2022-09-12T04:46:39;18.87;;;13.73;;
1591;SDS011;789;51.612;7.510;2022-09-12T04:49:07;16.00;;;14.30;;
1591;SDS011;789;51.612;7.510;2022-09-12T04:51:35;15.13;;;13.57;;
1591;SDS011;789;51.612;7.510;2022-09-12T04:54:04;16.30;;;14.37;;
1591;SDS011;789;51.612;7.510;2022-09-12T04:56:32;18.93;;;14.40;;
1591;SDS011;789;51.612;7.510;2022-09-12T04:59:02;16.13;;;13.70;;
1591;SDS011;789;51.612;7.510;2022-09-12T05:01:31;17.90;;;14.87;;
1591;SDS011;789;51.612;7.510;2022-09-12T05:03:58;15.10;;;13.50;;
1591;SDS011;789;51.612;7.510;2022-09-12T05:06:25;15.43;;;13.80;;
1591;SDS011;789;51.612;7.510;2022-09-12T05:08:54;16.03;;;13.80;;
1591;SDS011;789;51.612;7.510;2022-09-12T05:11:23;14.80;;;12.70;;
1591;SDS011;789;51.612;7.510;2022-09-12T05:13:51;16.27;;;13.53;;
1591;SDS011;789;51.612;7.510;2022-09-12T05:16:18;16.90;;;13.60;;
1591;SDS011;789;51.612;7.510;2022-09-12T05:18:47;14.97;;;13.20;;
1591;SDS011;789;51.612;7.510;2022-09-12T05:21:14;17.03;;;13.10;;
1591;SDS011;789;51.612;7.510;2022-09-12T05:23:43;16.47;;;13.70;;
1591;SDS011;789;51.612;7.510;2022-09-12T05:26:13;17.33;;;13.10;;
1591;SDS011;789;51.612;7.510;2022-09-12T05:28:40;14.70;;;13.20;;
1591;SDS011;789;51.612;7.510;2022-09-12T05:31:09;17.80;;;14.83;;
1591;SDS011;789;51.612;7.510;2022-09-12T05:33:38;14.63;;;13.10;;
1591;SDS011;789;51.612;7.510;2022-09-12T05:36:09;14.80;;;13.30;;
1591;SDS011;789;51.612;7.510;2022-09-12T05:38:37;15.97;;;14.03;;
1591;SDS011;789;51.612;7.510;2022-09-12T05:41:05;14.80;;;13.20;;
1591;SDS011;789;51.612;7.510;2022-09-12T05:43:36;14.70;;;13.17;;
1591;SDS011;789;51.612;7.510;2022-09-12T05:46:06;15.30;;;12.90;;
1591;SDS011;789;51.612;7.510;2022-09-12T05:48:34;16.30;;;12.53;;
1591;SDS011;789;51.612;7.510;2022-09-12T05:51:02;15.27;;;12.20;;
1591;SDS011;789;51.612;7.510;2022-09-12T05:53:35;15.00;;;12.27;;
1591;SDS011;789;51.612;7.510;2022-09-12T05:56:03;14.67;;;13.17;;
1591;SDS011;789;51.612;7.510;2022-09-12T05:58:31;12.90;;;11.40;;
1591;SDS011;789;51.612;7.510;2022-09-12T06:01:02;14.10;;;12.70;;
1591;SDS011;789;51.612;7.510;2022-09-12T06:03:31;14.77;;;11.83;;
1591;SDS011;789;51.612;7.510;2022-09-12T06:06:00;12.93;;;11.63;;
1591;SDS011;789;51.612;7.510;2022-09-12T06:08:30;13.27;;;11.93;;
1591;SDS011;789;51.612;7.510;2022-09-12T06:11:01;12.43;;;11.13;;
1591;SDS011;789;51.612;7.510;2022-09-12T06:13:30;13.00;;;11.60;;
1591;SDS011;789;51.612;7.510;2022-09-12T06:16:03;13.60;;;11.67;;
1591;SDS011;789;51.612;7.510;2022-09-12T06:18:32;14.03;;;11.03;;
1591;SDS011;789;51.612;7.510;2022-09-12T06:21:01;14.60;;;10.70;;
1591;SDS011;789;51.612;7.510;2022-09-12T06:23:28;13.60;;;11.90;;
1591;SDS011;789;51.612;7.510;2022-09-12T06:25:55;11.40;;;10.30;;
1591;SDS011;789;51.612;7.510;2022-09-12T06:28:23;13.93;;;10.80;;
1591;SDS011;789;51.612;7.510;2022-09-12T06:30:51;11.13;;;10.03;;
1591;SDS011;789;51.612;7.510;2022-09-12T06:33:18;12.67;;;11.17;;
1591;SDS011;789;51.612;7.510;2022-09-12T06:35:45;13.60;;;10.40;;
1591;SDS011;789;51.612;7.510;2022-09-12T06:38:11;11.20;;;10.10;;
1591;SDS011;789;51.612;7.510;2022-09-12T06:40:40;11.97;;;10.77;;
1591;SDS011;789;51.612;7.510;2022-09-12T06:43:08;13.00;;;10.37;;
1591;SDS011;789;51.612;7.510;2022-09-12T06:45:38;11.20;;;10.10;;
1591;SDS011;789;51.612;7.510;2022-09-12T06:48:05;10.80;;;9.80;;
1591;SDS011;789;51.612;7.510;2022-09-12T06:50:32;11.67;;;9.77;;
1591;SDS011;789;51.612;7.510;2022-09-12T06:52:59;11.20;;;10.03;;
1591;SDS011;789;51.612;7.510;2022-09-12T06:55:25;12.33;;;9.80;;
1591;SDS011;789;51.612;7.510;2022-09-12T06:57:53;11.73;;;10.00;;
1591;SDS011;789;51.612;7.510;2022-09-12T07:00:20;12.13;;;10.33;;
1591;SDS011;789;51.612;7.510;2022-09-12T07:02:50;11.30;;;9.33;;
1591;SDS011;789;51.612;7.510;2022-09-12T07:05:19;11.47;;;10.40;;
1591;SDS011;789;51.612;7.510;2022-09-12T07:07:48;10.30;;;9.17;;
1591;SDS011;789;51.612;7.510;2022-09-12T07:10:17;11.00;;;10.00;;
1591;SDS011;789;51.612;7.510;2022-09-12T07:12:45;15.07;;;10.37;;
1591;SDS011;789;51.612;7.510;2022-09-12T07:15:11;11.43;;;8.70;;
1591;SDS011;789;51.612;7.510;2022-09-12T07:17:41;12.70;;;10.20;;
1591;SDS011;789;51.612;7.510;2022-09-12T07:20:09;17.17;;;9.93;;
1591;SDS011;789;51.612;7.510;2022-09-12T07:22:36;10.80;;;8.87;;
1591;SDS011;789;51.612;7.510;2022-09-12T07:25:03;12.63;;;9.33;;
1591;SDS011;789;51.612;7.510;2022-09-12T07:27:30;12.10;;;9.50;;
1591;SDS011;789;51.612;7.510;2022-09-12T07:29:57;14.53;;;9.43;;
1591;SDS011;789;51.612;7.510;2022-09-12T07:32:23;13.47;;;9.67;;
1591;SDS011;789;51.612;7.510;2022-09-12T07:34:51;10.00;;;8.97;;
1591;SDS011;789;51.612;7.510;2022-09-12T07:37:19;10.60;;;8.77;;
1591;SDS011;789;51.612;7.510;2022-09-12T07:39:46;11.53;;;8.77;;
1591;SDS011;789;51.612;7.510;2022-09-12T07:42:12;9.30;;;8.47;;
1591;SDS011;789;51.612;7.510;2022-09-12T07:44:41;11.20;;;9.77;;
1591;SDS011;789;51.612;7.510;2022-09-12T07:47:09;10.40;;;9.40;;
1591;SDS011;789;51.612;7.510;2022-09-12T07:49:36;21.90;;;19.67;;
1591;SDS011;789;51.612;7.510;2022-09-12T07:52:12;11.80;;;10.67;;
1591;SDS011;789;51.612;7.510;2022-09-12T07:54:40;10.90;;;9.80;;
1591;SDS011;789;51.612;7.510;2022-09-12T07:57:07;16.97;;;10.93;;
1591;SDS011;789;51.612;7.510;2022-09-12T07:59:33;12.10;;;10.47;;
1591;SDS011;789;51.612;7.510;2022-09-12T08:02:08;12.03;;;10.90;;
1591;SDS011;789;51.612;7.510;2022-09-12T08:04:37;17.00;;;10.10;;
1591;SDS011;789;51.612;7.510;2022-09-12T08:07:03;11.07;;;9.60;;
1591;SDS011;789;51.612;7.510;2022-09-12T08:09:30;12.13;;;10.07;;
1591;SDS011;789;51.612;7.510;2022-09-12T08:11:58;14.40;;;11.27;;
1591;SDS011;789;51.612;7.510;2022-09-12T08:14:25;13.43;;;11.20;;
1591;SDS011;789;51.612;7.510;2022-09-12T08:16:52;13.33;;;11.93;;
1591;SDS011;789;51.612;7.510;2022-09-12T08:19:19;11.77;;;10.43;;
1591;SDS011;789;51.612;7.510;2022-09-12T08:21:46;19.97;;;11.37;;
1591;SDS011;789;51.612;7.510;2022-09-12T08:24:13;12.07;;;10.97;;
1591;SDS011;789;51.612;7.510;2022-09-12T08:26:40;11.40;;;10.00;;
1591;SDS011;789;51.612;7.510;2022-09-12T08:29:09;12.63;;;10.57;;
1591;SDS011;789;51.612;7.510;2022-09-12T08:31:36;18.30;;;10.93;;
1591;SDS011;789;51.612;7.510;2022-09-12T08:34:03;15.97;;;10.83;;
1591;SDS011;789;51.612;7.510;2022-09-12T08:36:31;12.70;;;11.40;;
1591;SDS011;789;51.612;7.510;2022-09-12T08:38:59;12.07;;;10.53;;
1591;SDS011;789;51.612;7.510;2022-09-12T08:41:28;12.43;;;10.50;;
1591;SDS011;789;51.612;7.510;2022-09-12T08:44:07;11.00;;;9.97;;
1591;SDS011;789;51.612;7.510;2022-09-12T08:46:56;11.20;;;10.10;;
1591;SDS011;789;51.612;7.510;2022-09-12T08:49:36;13.77;;;11.10;;
1591;SDS011;789;51.612;7.510;2022-09-12T08:52:09;16.20;;;10.30;;
1591;SDS011;789;51.612;7.510;2022-09-12T08:54:39;11.50;;;10.40;;
1591;SDS011;789;51.612;7.510;2022-09-12T08:57:08;13.43;;;10.53;;
1591;SDS011;789;51.612;7.510;2022-09-12T08:59:44;10.50;;;9.30;;
1591;SDS011;789;51.612;7.510;2022-09-12T09:02:19;11.53;;;9.53;;
1591;SDS011;789;51.612;7.510;2022-09-12T09:05:02;17.97;;;10.87;;
1591;SDS011;789;51.612;7.510;2022-09-12T09:07:55;12.37;;;9.33;;
1591;SDS011;789;51.612;7.510;2022-09-12T09:10:42;11.27;;;9.00;;
1591;SDS011;789;51.612;7.510;2022-09-12T09:13:32;10.20;;;9.10;;
1591;SDS011;789;51.612;7.510;2022-09-12T09:16:32;10.10;;;9.10;;
1591;SDS011;789;51.612;7.510;2022-09-12T09:19:03;11.60;;;9.97;;
1591;SDS011;789;51.612;7.510;2022-09-12T09:21:36;12.30;;;9.43;;
1591;SDS011;789;51.612;7.510;2022-09-12T09:24:12;9.70;;;8.80;;
1591;SDS011;789;51.612;7.510;2022-09-12T09:26:42;16.80;;;10.30;;
1591;SDS011;789;51.612;7.510;2022-09-12T09:29:15;10.70;;;9.70;;
1591;SDS011;789;51.612;7.510;2022-09-12T09:31:44;9.50;;;8.47;;
1591;SDS011;789;51.612;7.510;2022-09-12T09:34:20;9.60;;;8.60;;
1591;SDS011;789;51.612;7.510;2022-09-12T09:36:51;13.33;;;10.40;;
1591;SDS011;789;51.612;7.510;2022-09-12T09:39:37;10.83;;;9.77;;
1591;SDS011;789;51.612;7.510;2022-09-12T09:42:17;9.17;;;8.27;;
1591;SDS011;789;51.612;7.510;2022-09-12T09:44:52;10.80;;;9.70;;
1591;SDS011;789;51.612;7.510;2022-09-12T09:47:24;9.93;;;9.03;;
1591;SDS011;789;51.612;7.510;2022-09-12T09:49:52;16.40;;;9.97;;
1591;SDS011;789;51.612;7.510;2022-09-12T09:52:20;12.77;;;9.53;;
1591;SDS011;789;51.612;7.510;2022-09-12T09:54:52;10.37;;;9.37;;
1591;SDS011;789;51.612;7.510;2022-09-12T09:57:38;10.07;;;9.17;;
1591;SDS011;789;51.612;7.510;2022-09-12T10:00:19;8.83;;;8.13;;
1591;SDS011;789;51.612;7.510;2022-09-12T10:02:57;12.60;;;8.20;;
1591;SDS011;789;51.612;7.510;2022-09-12T10:05:28;9.97;;;8.97;;
1591;SDS011;789;51.612;7.510;2022-09-12T10:07:56;10.33;;;9.33;;
1591;SDS011;789;51.612;7.510;2022-09-12T10:10:37;13.90;;;9.40;;
1591;SDS011;789;51.612;7.510;2022-09-12T10:13:22;10.70;;;9.00;;
1591;SDS011;789;51.612;7.510;2022-09-12T10:15:59;14.37;;;10.50;;
1591;SDS011;789;51.612;7.510;2022-09-12T10:18:40;12.07;;;9.87;;
1591;SDS011;789;51.612;7.510;2022-09-12T10:21:22;10.87;;;9.87;;
1591;SDS011;789;51.612;7.510;2022-09-12T10:23:58;10.83;;;9.93;;
1591;SDS011;789;51.612;7.510;2022-09-12T10:26:33;12.20;;;10.90;;
1591;SDS011;789;51.612;7.510;2022-09-12T10:29:05;9.50;;;8.70;;
1591;SDS011;789;51.612;7.510;2022-09-12T10:31:43;9.10;;;8.10;;
1591;SDS011;789;51.612;7.510;2022-09-12T10:34:19;8.47;;;7.73;;
1591;SDS011;789;51.612;7.510;2022-09-12T10:37:02;13.40;;;12.10;;
1591;SDS011;789;51.612;7.510;2022-09-12T10:39:34;9.80;;;7.83;;
1591;SDS011;789;51.612;7.510;2022-09-12T10:42:02;7.40;;;6.70;;
1591;SDS011;789;51.612;7.510;2022-09-12T10:44:34;8.57;;;7.70;;
1591;SDS011;789;51.612;7.510;2022-09-12T10:47:18;8.60;;;7.80;;
1591;SDS011;789;51.612;7.510;2022-09-12T10:49:49;7.90;;;6.97;;
1591;SDS011;789;51.612;7.510;2022-09-12T10:52:21;6.30;;;5.70;;
1591;SDS011;789;51.612;7.510;2022-09-12T10:54:48;6.67;;;5.80;;
1591;SDS011;789;51.612;7.510;2022-09-12T11:00:16;10.13;;;6.53;;
1591;SDS011;789;51.612;7.510;2022-09-12T11:02:55;5.67;;;5.20;;
1591;SDS011;789;51.612;7.510;2022-09-12T11:08:35;5.53;;;5.03;;
1591;SDS011;789;51.612;7.510;2022-09-12T11:11:11;9.67;;;6.30;;
1591;SDS011;789;51.612;7.510;2022-09-12T11:13:54;5.93;;;5.37;;
1591;SDS011;789;51.612;7.510;2022-09-12T11:16:36;5.33;;;4.93;;
1591;SDS011;789;51.612;7.510;2022-09-12T11:19:17;5.70;;;4.60;;
1591;SDS011;789;51.612;7.510;2022-09-12T11:22:08;7.50;;;5.07;;
1591;SDS011;789;51.612;7.510;2022-09-12T11:28:00;6.90;;;5.00;;
1591;SDS011;789;51.612;7.510;2022-09-12T11:30:38;6.83;;;5.07;;
1591;SDS011;789;51.612;7.510;2022-09-12T11:33:19;5.53;;;5.03;;
1591;SDS011;789;51.612;7.510;2022-09-12T11:35:52;5.60;;;4.40;;
1591;SDS011;789;51.612;7.510;2022-09-12T11:41:17;5.27;;;4.77;;
1591;SDS011;789;51.612;7.510;2022-09-12T11:43:49;9.80;;;4.50;;
1591;SDS011;789;51.612;7.510;2022-09-12T11:46:22;5.37;;;4.87;;
1591;SDS011;789;51.612;7.510;2022-09-12T11:48:56;4.77;;;4.30;;
1591;SDS011;789;51.612;7.510;2022-09-12T11:51:26;4.77;;;4.37;;
1591;SDS011;789;51.612;7.510;2022-09-12T11:54:01;4.60;;;4.20;;
1591;SDS011;789;51.612;7.510;2022-09-12T11:56:35;5.53;;;4.50;;
1591;SDS011;789;51.612;7.510;2022-09-12T11:59:09;5.27;;;4.80;;
1591;SDS011;789;51.612;7.510;2022-09-12T12:01:43;4.90;;;4.40;;
1591;SDS011;789;51.612;7.510;2022-09-12T12:04:15;4.90;;;4.50;;
1591;SDS011;789;51.612;7.510;2022-09-12T12:06:51;5.20;;;4.80;;
1591;SDS011;789;51.612;7.510;2022-09-12T12:09:22;4.63;;;4.23;;
1591;SDS011;789;51.612;7.510;2022-09-12T12:11:52;5.90;;;4.23;;
1591;SDS011;789;51.612;7.510;2022-09-12T12:14:22;4.50;;;4.10;;
1591;SDS011;789;51.612;7.510;2022-09-12T12:16:53;3.93;;;3.63;;
1591;SDS011;789;51.612;7.510;2022-09-12T12:19:27;5.23;;;4.50;;
1591;SDS011;789;51.612;7.510;2022-09-12T12:22:04;4.20;;;3.90;;
1591;SDS011;789;51.612;7.510;2022-09-12T12:24:54;4.73;;;4.30;;
1591;SDS011;789;51.612;7.510;2022-09-12T12:48:35;6.70;;;4.33;;
1591;SDS011;789;51.612;7.510;2022-09-12T12:51:25;4.73;;;4.20;;
1591;SDS011;789;51.612;7.510;2022-09-12T12:53:56;6.70;;;4.10;;
1591;SDS011;789;51.612;7.510;2022-09-12T12:59:14;4.70;;;4.33;;
1591;SDS011;789;51.612;7.510;2022-09-12T13:01:45;39.40;;;35.37;;
1591;SDS011;789;51.612;7.510;2022-09-12T13:04:15;6.03;;;5.43;;
1591;SDS011;789;51.612;7.510;2022-09-12T13:06:54;12.40;;;8.17;;
1591;SDS011;789;51.612;7.510;2022-09-12T13:09:24;5.97;;;3.67;;
1591;SDS011;789;51.612;7.510;2022-09-12T13:11:56;4.97;;;3.83;;
1591;SDS011;789;51.612;7.510;2022-09-12T13:14:34;4.50;;;4.00;;
1591;SDS011;789;51.612;7.510;2022-09-12T13:17:13;5.40;;;4.90;;
1591;SDS011;789;51.612;7.510;2022-09-12T13:19:47;4.50;;;4.10;;
1591;SDS011;789;51.612;7.510;2022-09-12T13:22:14;6.43;;;4.63;;
1591;SDS011;789;51.612;7.510;2022-09-12T13:24:42;3.97;;;3.57;;
1591;SDS011;789;51.612;7.510;2022-09-12T13:27:16;4.03;;;3.70;;
1591;SDS011;789;51.612;7.510;2022-09-12T13:29:45;4.07;;;3.77;;
1591;SDS011;789;51.612;7.510;2022-09-12T13:32:12;4.47;;;4.07;;
1591;SDS011;789;51.612;7.510;2022-09-12T13:34:43;4.20;;;3.73;;
1591;SDS011;789;51.612;7.510;2022-09-12T13:40:21;4.17;;;3.80;;
1591;SDS011;789;51.612;7.510;2022-09-12T13:43:11;5.87;;;5.37;;
1591;SDS011;789;51.612;7.510;2022-09-12T13:45:42;3.63;;;3.33;;
1591;SDS011;789;51.612;7.510;2022-09-12T13:48:12;3.73;;;3.20;;
1591;SDS011;789;51.612;7.510;2022-09-12T13:50:43;4.80;;;4.30;;
1591;SDS011;789;51.612;7.510;2022-09-12T13:53:18;4.30;;;3.80;;
1591;SDS011;789;51.612;7.510;2022-09-12T13:55:48;5.60;;;5.10;;
1591;SDS011;789;51.612;7.510;2022-09-12T13:58:19;5.00;;;4.50;;
1591;SDS011;789;51.612;7.510;2022-09-12T14:01:00;4.40;;;4.00;;
1591;SDS011;789;51.612;7.510;2022-09-12T14:03:30;4.80;;;4.17;;
1591;SDS011;789;51.612;7.510;2022-09-12T14:06:15;4.93;;;4.17;;
1591;SDS011;789;51.612;7.510;2022-09-12T14:08:43;5.10;;;4.60;;
1591;SDS011;789;51.612;7.510;2022-09-12T14:11:15;5.23;;;4.70;;
1591;SDS011;789;51.612;7.510;2022-09-12T14:13:48;6.43;;;4.77;;
1591;SDS011;789;51.612;7.510;2022-09-12T14:16:18;6.90;;;4.90;;
1591;SDS011;789;51.612;7.510;2022-09-12T14:18:47;4.97;;;4.57;;
1591;SDS011;789;51.612;7.510;2022-09-12T14:21:19;4.43;;;4.03;;
1591;SDS011;789;51.612;7.510;2022-09-12T14:23:58;4.30;;;3.90;;
1591;SDS011;789;51.612;7.510;2022-09-12T14:26:26;4.73;;;4.23;;
1591;SDS011;789;51.612;7.510;2022-09-12T14:28:57;4.40;;;4.00;;
1591;SDS011;789;51.612;7.510;2022-09-12T14:31:28;4.30;;;3.80;;
1591;SDS011;789;51.612;7.510;2022-09-12T14:34:06;4.53;;;4.13;;
1591;SDS011;789;51.612;7.510;2022-09-12T14:36:35;4.40;;;4.10;;
1591;SDS011;789;51.612;7.510;2022-09-12T14:39:06;5.97;;;3.50;;
1591;SDS011;789;51.612;7.510;2022-09-12T14:41:43;4.63;;;3.73;;
1591;SDS011;789;51.612;7.510;2022-09-12T14:44:14;4.20;;;3.87;;
1591;SDS011;789;51.612;7.510;2022-09-12T14:46:45;3.97;;;3.57;;
1591;SDS011;789;51.612;7.510;2022-09-12T14:49:15;4.10;;;3.60;;
1591;SDS011;789;51.612;7.510;2022-09-12T14:51:47;3.97;;;3.67;;
1591;SDS011;789;51.612;7.510;2022-09-12T14:54:36;4.70;;;3.13;;
1591;SDS011;789;51.612;7.510;2022-09-12T14:57:05;4.93;;;3.80;;
1591;SDS011;789;51.612;7.510;2022-09-12T14:59:52;4.30;;;3.80;;
1591;SDS011;789;51.612;7.510;2022-09-12T15:02:31;4.67;;;4.17;;
1591;SDS011;789;51.612;7.510;2022-09-12T15:07:41;4.83;;;4.33;;
1591;SDS011;789;51.612;7.510;2022-09-12T15:10:13;4.00;;;3.50;;
1591;SDS011;789;51.612;7.510;2022-09-12T15:12:46;4.20;;;3.77;;
1591;SDS011;789;51.612;7.510;2022-09-12T15:15:13;4.30;;;3.67;;
1591;SDS011;789;51.612;7.510;2022-09-12T15:17:42;4.87;;;4.47;;
1591;SDS011;789;51.612;7.510;2022-09-12T15:20:09;4.80;;;4.30;;
1591;SDS011;789;51.612;7.510;2022-09-12T15:22:36;5.50;;;5.10;;
1591;SDS011;789;51.612;7.510;2022-09-12T15:25:06;5.00;;;4.47;;
1591;SDS011;789;51.612;7.510;2022-09-12T15:27:35;4.37;;;3.97;;
1591;SDS011;789;51.612;7.510;2022-09-12T15:30:05;5.63;;;5.13;;
1591;SDS011;789;51.612;7.510;2022-09-12T15:32:34;6.30;;;4.10;;
1591;SDS011;789;51.612;7.510;2022-09-12T15:35:04;4.17;;;3.87;;
1591;SDS011;789;51.612;7.510;2022-09-12T15:37:36;4.10;;;3.70;;
1591;SDS011;789;51.612;7.510;2022-09-12T15:40:03;4.47;;;4.07;;
1591;SDS011;789;51.612;7.510;2022-09-12T15:42:31;4.20;;;3.80;;
1591;SDS011;789;51.612;7.510;2022-09-12T15:44:57;4.33;;;3.90;;
1591;SDS011;789;51.612;7.510;2022-09-12T15:47:35;6.93;;;4.30;;
1591;SDS011;789;51.612;7.510;2022-09-12T15:50:05;4.30;;;3.90;;
1591;SDS011;789;51.612;7.510;2022-09-12T15:52:39;4.27;;;3.87;;
1591;SDS011;789;51.612;7.510;2022-09-12T15:55:09;4.80;;;3.47;;
1591;SDS011;789;51.612;7.510;2022-09-12T15:57:40;4.20;;;3.90;;
1591;SDS011;789;51.612;7.510;2022-09-12T16:00:07;3.77;;;3.47;;
1591;SDS011;789;51.612;7.510;2022-09-12T16:02:35;4.53;;;3.20;;
1591;SDS011;789;51.612;7.510;2022-09-12T16:05:04;5.33;;;3.80;;
1591;SDS011;789;51.612;7.510;2022-09-12T16:07:38;4.10;;;3.73;;
1591;SDS011;789;51.612;7.510;2022-09-12T16:10:05;4.00;;;3.70;;
1591;SDS011;789;51.612;7.510;2022-09-12T16:12:32;3.87;;;3.57;;
1591;SDS011;789;51.612;7.510;2022-09-12T16:14:59;4.50;;;3.90;;
1591;SDS011;789;51.612;7.510;2022-09-12T16:17:26;3.90;;;3.60;;
1591;SDS011;789;51.612;7.510;2022-09-12T16:19:53;3.50;;;3.20;;
1591;SDS011;789;51.612;7.510;2022-09-12T16:22:23;9.47;;;4.47;;